Latest Weather Observations for Winton

IDQ60801

Issued at 11:43 am EST Saturday 1 October 2022 (issued every 10 minutes, with the page automatically refreshed every 10 minutes)

About weather observations | Map of weather stations | Latest weather observations for QLD | Other Formats
Station Details ID: 037039 Name: WINTON AIRPORT Lat: -22.36 Lon: 143.08 Height: 192.2 m
Data from the previous 72 hours. | See also: Recent months at Winton
Date/Time
EST
Temp
°C
App
Temp
°C
Dew
Point
°C
Rel
Hum
%
Delta-T
°C
Wind Press
QNH
hPa
Press
MSL
hPa
Rain since
9am
mm
Dir  Spd
km/h
Gust
km/h
Spd
kts
Gust
kts
01/11:30am 28.4 26.3 4.0 21 12.5 NNE 4 13 2 7 1014.9 1013.8 0.0
01/11:00am 28.0 25.4 6.2 25 11.5 ENE 9 17 5 9 1015.4 1014.3 0.0
01/10:30am 27.1 24.2 6.5 27 10.9 E 11 19 6 10 1015.6 1014.5 0.0
01/10:00am 26.5 23.6 8.0 31 10.0 E 13 20 7 11 1016.0 1014.8 0.0
01/09:30am 25.1 22.2 8.1 34 9.2 E 13 19 7 10 1016.1 1015.2 0.0
01/09:00am 22.3 19.3 7.7 39 7.7 ESE 13 17 7 9 1016.3 1015.4 0.0
01/08:30am 19.7 17.5 7.8 46 6.2 ESE 9 13 5 7 1016.1 1015.2 0.0
01/08:00am 18.0 16.2 8.0 52 5.1 SE 7 9 4 5 1015.7 1014.9 0.0
01/07:30am 15.6 14.4 7.9 60 3.9 ESE 4 6 2 3 1015.5 1014.7 0.0
01/07:00am 14.2 12.6 7.9 66 3.2 ESE 6 6 3 3 1015.3 1014.5 0.0
01/06:30am 13.5 11.7 7.3 66 3.1 E 6 7 3 4 1014.9 1014.1 0.0
01/06:00am 13.9 12.1 7.0 63 3.4 ESE 6 7 3 4 1014.5 1013.7 0.0
01/05:30am 13.9 12.0 7.4 65 3.2 ESE 7 9 4 5 1014.3 1013.5 0.0
01/05:00am 14.4 12.6 7.0 61 3.6 ESE 6 6 3 3 1014.2 1013.4 0.0
01/04:30am 13.6 11.7 7.4 66 3.1 E 7 11 4 6 1013.7 1012.9 0.0
01/04:00am 14.7 12.3 6.8 59 3.9 ESE 9 13 5 7 1013.6 1012.8 0.0
01/03:30am 13.9 12.1 7.0 63 3.4 E 6 7 3 4 1013.7 1012.9 0.0
01/03:00am 14.6 12.6 6.9 60 3.8 ESE 7 9 4 5 1013.5 1012.7 0.0
01/02:30am 15.0 13.0 7.3 60 3.8 E 7 11 4 6 1013.6 1012.8 0.0
01/02:00am 15.1 12.4 7.4 60 3.8 ESE 11 13 6 7 1014.1 1013.3 0.0
01/01:30am 15.2 13.0 8.0 62 3.6 ESE 9 9 5 5 1014.3 1013.5 0.0
01/01:00am 15.7 14.5 8.0 60 3.9 E 4 6 2 3 1014.7 1013.9 0.0
01/12:30am 16.3 15.1 8.0 58 4.2 SE 4 6 2 3 1015.2 1014.4 0.0
01/12:00am 16.3 14.5 7.8 57 4.3 ESE 7 7 4 4 1015.3 1014.5 0.0
 
Date/Time
EST
Temp
°C
App
Temp
°C
Dew
Point
°C
Rel
Hum
%
Delta-T
°C
Wind Press
QNH
hPa
Press
MSL
hPa
Rain since
9am
mm
Dir  Spd
km/h
Gust
km/h
Spd
kts
Gust
kts
30/11:30pm 16.7 14.6 6.8 52 4.9 ESE 7 7 4 4 1015.5 1014.7 0.0
30/11:00pm 17.6 15.5 6.5 48 5.5 SE 7 9 4 5 1015.6 1014.8 0.0
30/10:30pm 18.6 16.4 6.4 45 6.1 SE 7 9 4 5 1016.0 1015.1 0.0
30/10:00pm 18.5 16.0 6.7 46 5.9 SSE 9 9 5 5 1016.1 1015.2 0.0
30/09:30pm 19.3 17.1 6.1 42 6.6 SE 7 9 4 5 1016.1 1015.2 0.0
30/09:00pm 20.1 17.6 6.5 41 6.9 SE 9 11 5 6 1016.1 1015.2 0.0
30/08:30pm 19.4 17.0 7.2 45 6.2 ESE 9 9 5 5 1015.5 1014.7 0.0
30/08:00pm 20.8 18.0 7.1 41 7.1 SE 11 11 6 6 1015.3 1014.5 0.0
30/07:30pm 22.0 19.4 6.3 36 8.0 SE 9 9 5 5 1015.0 1014.2 0.0
30/07:00pm 22.9 19.7 5.3 32 8.9 SE 11 11 6 6 1014.9 1014.1 0.0
30/06:30pm 24.6 21.2 3.8 26 10.3 SSE 11 13 6 7 1014.8 1014.0 0.0
30/06:00pm 27.0 23.1 3.5 22 11.8 SSE 13 19 7 10 1014.3 1013.5 0.0
30/05:30pm 28.1 23.9 3.7 21 12.4 SE 15 22 8 12 1014.3 1013.5 0.0
30/05:00pm 28.5 23.3 3.4 20 12.7 SSE 20 30 11 16 1013.9 1013.1 0.0
30/04:30pm 29.0 24.4 3.8 20 12.9 SE 17 28 9 15 1014.0 1013.2 0.0
30/04:00pm 28.9 24.3 3.7 20 12.8 SSE 17 28 9 15 1014.1 1013.3 0.0
30/03:30pm 28.8 24.1 2.9 19 13.0 SSE 17 26 9 14 1014.2 1013.4 0.0
30/03:00pm 29.1 25.5 5.2 22 12.5 SE 13 24 7 13 1014.4 1013.6 0.0
30/02:30pm 28.6 25.2 4.2 21 12.5 ESE 11 20 6 11 1015.2 1014.4 0.0
30/02:00pm 28.5 24.4 4.1 21 12.5 SE 15 24 8 13 1015.4 1014.6 0.0
30/01:30pm 28.5 24.1 4.7 22 12.3 SE 17 26 9 14 1016.0 1015.1 0.0
30/01:00pm 27.9 24.4 5.5 24 11.7 SE 13 32 7 17 1016.7 1015.8 0.0
30/12:30pm 27.3 22.4 5.0 24 11.5 SE 20 28 11 15 1017.3 1016.5 0.0
30/12:00pm 27.1 22.3 5.4 25 11.3 ESE 20 32 11 17 1017.8 1017.0 0.0
30/11:30am 26.2 20.9 6.8 29 10.3 SE 24 33 13 18 1018.4 1017.6 0.0
30/11:00am 25.9 20.6 7.0 30 10.0 SE 24 33 13 18 1018.9 1018.1 0.0
30/10:30am 25.3 20.1 7.4 32 9.5 SE 24 35 13 19 1019.4 1018.6 0.0
30/10:00am 24.7 18.9 7.8 34 9.0 ESE 28 35 15 19 1019.5 1018.7 0.0
30/09:30am 23.9 19.0 8.3 37 8.4 ESE 24 32 13 17 1019.9 1019.1 0.0
30/09:00am 21.7 15.9 7.9 41 7.2 ESE 28 35 15 19 1020.0 1019.2 0.0
30/08:30am 20.5 15.0 7.5 43 6.7 ESE 26 35 14 19 1019.7 1018.9 0.0
30/08:00am 19.0 13.8 7.4 47 5.9 SE 24 33 13 18 1019.7 1018.9 0.0
30/07:30am 16.9 13.2 7.8 55 4.6 SE 17 22 9 12 1019.4 1018.6 0.0
30/07:00am 14.5 11.8 7.5 63 3.5 SE 11 15 6 8 1018.8 1018.0 0.0
30/06:30am 11.8 9.0 6.9 72 2.4 ESE 11 11 6 6 1018.4 1017.6 0.0
30/06:00am 11.3 8.0 6.6 73 2.2 SE 13 15 7 8 1018.1 1017.3 0.0
30/05:30am 11.1 7.9 6.8 75 2.1 ESE 13 13 7 7 1017.8 1017.0 0.0
30/05:00am 11.0 7.9 7.1 77 1.9 ESE 13 13 7 7 1017.6 1016.8 0.0
30/04:30am 11.4 9.0 6.9 74 2.2 SE 9 9 5 5 1017.5 1016.7 0.0
30/04:00am 11.9 9.4 6.6 70 2.5 SE 9 9 5 5 1017.5 1016.7 0.0
30/03:30am 12.7 10.7 6.3 65 3.1 ESE 6 7 3 4 1017.7 1016.9 0.0
30/03:00am 12.9 10.7 6.0 63 3.3 SE 7 9 4 5 1017.9 1017.1 0.0
30/02:30am 14.0 11.4 6.1 59 3.8 SE 9 11 5 6 1017.9 1017.1 0.0
30/02:00am 13.7 11.1 6.3 61 3.6 SE 9 11 5 6 1017.9 1017.1 0.0
30/01:30am 13.6 11.1 6.5 62 3.4 SE 9 13 5 7 1018.0 1017.2 0.0
30/01:00am 14.3 11.4 6.4 59 3.8 SE 11 15 6 8 1018.2 1017.4 0.0
30/12:30am 14.2 11.4 7.0 62 3.5 SE 11 13 6 7 1018.5 1017.7 0.0
30/12:00am 14.2 11.9 7.5 64 3.3 ESE 9 9 5 5 1018.5 1017.7 0.0
 
Date/Time
EST
Temp
°C
App
Temp
°C
Dew
Point
°C
Rel
Hum
%
Delta-T
°C
Wind Press
QNH
hPa
Press
MSL
hPa
Rain since
9am
mm
Dir  Spd
km/h
Gust
km/h
Spd
kts
Gust
kts
29/11:30pm 13.8 11.6 7.8 67 3.0 ESE 9 9 5 5 1018.5 1017.7 0.0
29/11:00pm 14.7 12.5 8.0 64 3.4 ESE 9 11 5 6 1018.4 1017.6 0.0
29/10:30pm 16.9 15.4 7.0 52 5.0 SE 4 6 2 3 1018.4 1017.6 0.0
29/10:00pm 17.2 17.0 9.1 59 4.2 CALM 0 6 0 3 1018.4 1017.6 0.0
29/09:30pm 18.3 17.2 7.1 48 5.7 SE 2 2 1 1 1018.3 1017.5 0.0
29/09:00pm 18.7 17.2 6.9 46 6.0 SE 4 6 2 3 1017.9 1017.1 0.0
29/08:30pm 19.7 17.2 6.4 42 6.7 SE 9 11 5 6 1017.6 1016.8 0.0
29/08:00pm 21.3 18.9 5.2 35 8.0 SSE 7 9 4 5 1017.3 1016.5 0.0
29/07:30pm 21.2 19.1 6.7 39 7.4 SE 7 9 4 5 1016.9 1016.0 0.0
29/07:00pm 22.5 20.1 5.4 33 8.6 SSE 7 11 4 6 1016.5 1015.6 0.0
29/06:30pm 23.6 21.4 5.5 31 9.2 SSE 6 7 3 4 1016.1 1015.2 0.0
29/06:00pm 25.6 22.9 3.6 24 11.0 SSE 7 11 4 6 1015.7 1014.9 0.0
29/05:30pm 26.8 23.4 2.0 20 12.1 S 9 15 5 8 1015.5 1014.7 0.0
29/05:00pm 27.3 23.6 2.4 20 12.3 SSE 11 19 6 10 1015.4 1014.6 0.0
29/04:30pm 27.4 23.5 1.0 18 12.7 S 11 17 6 9 1015.4 1014.6 0.0
29/04:00pm 27.6 23.4 1.9 19 12.6 SSE 13 20 7 11 1015.6 1014.8 0.0
29/03:30pm 27.5 24.1 1.8 19 12.6 SSW 9 20 5 11 1015.7 1014.9 0.0
29/03:00pm 27.1 22.6 2.2 20 12.2 SSW 15 19 8 10 1015.8 1015.0 0.0
29/02:30pm 26.7 23.0 2.6 21 11.9 SSE 11 20 6 11 1016.4 1015.5 0.0
29/02:00pm 26.7 23.0 2.6 21 11.9 SSW 11 22 6 12 1017.1 1016.2 0.0
29/01:30pm 26.3 21.8 2.3 21 11.7 SSE 15 22 8 12 1017.5 1016.7 0.0
29/01:00pm 25.8 22.2 3.1 23 11.2 S 11 20 6 11 1018.0 1017.2 0.0
29/12:30pm 25.5 21.6 3.5 24 10.9 SSE 13 24 7 13 1018.2 1017.4 0.0
29/12:00pm 25.2 21.6 4.9 27 10.3 SE 13 28 7 15 1018.5 1017.7 0.0
29/11:30am 24.8 21.3 5.6 29 9.9 ESE 13 28 7 15 1018.9 1018.1 0.0
29/11:00am 24.0 19.0 4.4 28 9.8 SE 20 30 11 16 1019.1 1018.3 0.0
29/10:30am 23.5 18.2 4.9 30 9.4 SE 22 30 12 16 1019.2 1018.4 0.0
29/10:00am 22.8 17.6 5.3 32 8.8 ESE 22 32 12 17 1019.6 1018.8 0.0
29/09:30am 22.2 16.6 5.6 34 8.4 SE 24 32 13 17 1019.5 1018.7 0.0
29/09:00am 20.8 16.2 6.7 40 7.2 SE 20 28 11 15 1019.5 1018.7 -
29/08:31am 19.8 16.3 7.2 44 6.5 SE 15 24 8 13 1019.3 1018.5 -
29/08:30am 22.3 19.4 9.5 44 7.0 SE 15 24 8 13 1038.6 1037.8 0.2
29/08:29am 22.3 19.0 9.5 44 7.0 SE 17 24 9 13 1038.6 1037.8 12.2
29/08:00am 18.3 15.4 8.0 51 5.3 SE 13 20 7 11 1018.9 1018.1 0.2
29/07:30am 16.1 14.8 9.8 66 3.3 SE 7 11 4 6 1018.6 1017.8 0.2
29/07:00am 14.2 12.8 9.0 71 2.7 S 6 7 3 4 1018.4 1017.6 0.2
29/06:30am 13.8 12.2 8.6 71 2.6 SE 7 9 4 5 1017.8 1017.0 0.2
29/06:00am 14.0 12.9 10.6 80 1.8 SSE 7 9 4 5 1017.5 1016.7 0.2
29/05:30am 14.2 14.4 14.2 100 0.0 S 6 7 3 4 1017.2 1016.3 0.2
29/05:00am 14.2 15.2 14.2 100 0.0 SE 2 2 1 1 1017.0 1016.1 0.2
29/04:30am 14.3 15.6 14.1 99 0.1 CALM 0 0 0 0 1016.7 1015.8 0.2
29/04:00am 14.9 15.7 14.7 99 0.1 E 4 4 2 2 1016.4 1015.5 0.2
29/03:30am 15.5 16.3 14.9 96 0.3 SE 4 6 2 3 1016.4 1015.5 0.2
29/03:00am 15.4 16.7 15.2 99 0.1 SSE 2 4 1 2 1016.4 1015.5 0.2
29/02:30am 15.7 16.4 15.7 100 0.0 S 6 6 3 3 1016.5 1015.6 0.2
29/02:00am 15.6 16.0 15.4 99 0.1 SW 7 9 4 5 1016.5 1015.6 0.2
29/01:30am 16.3 17.0 16.1 99 0.1 SW 7 9 4 5 1016.7 1015.8 0.2
29/01:00am 17.3 18.4 16.7 96 0.4 W 6 6 3 3 1017.0 1016.1 0.2
29/12:30am 17.6 18.9 17.1 97 0.3 W 6 6 3 3 1017.0 1016.1 0.2
29/12:00am 17.7 18.8 16.7 94 0.6 W 6 6 3 3 1017.1 1016.2 0.2
 
Date/Time
EST
Temp
°C
App
Temp
°C
Dew
Point
°C
Rel
Hum
%
Delta-T
°C
Wind Press
QNH
hPa
Press
MSL
hPa
Rain since
9am
mm
Dir  Spd
km/h
Gust
km/h
Spd
kts
Gust
kts
28/11:30pm 18.4 19.5 16.7 90 1.0 NW 6 6 3 3 1017.1 1016.2 0.2
28/11:00pm 18.5 19.8 17.0 91 0.9 NNW 6 6 3 3 1017.0 1016.1 0.2
28/10:30pm 18.8 20.9 17.3 91 0.9 NW 2 4 1 2 1017.1 1016.2 0.2
28/10:00pm 18.7 20.0 17.0 90 1.0 NNW 6 6 3 3 1016.9 1016.0 0.2
28/09:30pm 18.5 20.2 17.2 92 0.8 W 4 4 2 2 1016.7 1015.8 0.2
28/09:00pm 18.7 19.9 16.9 89 1.1 SSW 6 7 3 4 1016.5 1015.6 0.2
28/08:30pm 19.0 20.1 16.6 86 1.5 S 6 7 3 4 1016.1 1015.2 0.2
28/08:00pm 19.1 21.5 16.9 87 1.3 CALM 0 0 0 0 1016.7 1015.8 0.2
28/07:30pm 19.4 21.6 16.6 84 1.7 CALM 0 2 0 1 1016.5 1015.6 0.2
28/07:00pm 19.4 21.4 16.1 81 2.0 CALM 0 0 0 0 1016.5 1015.6 0.2
28/06:30pm 19.6 20.7 15.7 78 2.3 NW 4 6 2 3 1016.2 1015.3 0.2
28/06:00pm 19.9 20.8 15.1 74 2.8 NW 4 7 2 4 1015.8 1015.0 0.2
28/05:30pm 20.2 21.4 14.8 71 3.2 W 2 4 1 2 1015.3 1014.5 0.2
28/05:00pm 20.3 21.8 14.7 70 3.3 CALM 0 0 0 0 1014.8 1014.0 0.2
28/04:30pm 20.4 21.5 14.5 69 3.5 NNW 2 4 1 2 1014.9 1014.1 0.2
28/04:00pm 20.6 21.4 14.7 69 3.5 WSW 4 9 2 5 1015.0 1014.2 0.2
28/03:30pm 20.5 21.2 14.4 68 3.6 WSW 4 9 2 5 1015.2 1014.4 0.2
28/03:00pm 20.4 21.1 14.5 69 3.5 W 4 7 2 4 1015.3 1014.5 0.2
28/02:30pm 20.2 21.7 15.6 75 2.8 NW 2 6 1 3 1015.5 1014.7 0.2
28/02:00pm 19.5 20.2 14.5 73 2.9 WNW 4 9 2 5 1015.8 1015.0 0.0
28/01:30pm 19.5 19.8 15.0 75 2.7 W 7 13 4 7 1016.5 1015.6 0.0
28/01:00pm 19.5 19.6 15.6 78 2.3 W 9 15 5 8 1017.2 1016.3 0.0
28/12:55pm 19.3 18.9 15.2 77 2.4 W 11 15 6 8 1017.3 1016.5 0.0
28/12:30pm 19.1 19.3 15.8 81 2.0 WNW 9 13 5 7 1017.3 1016.5 0.0
28/12:23pm 19.0 19.7 16.0 83 1.8 NW 7 11 4 6 1017.3 1016.5 0.0
28/12:00pm 18.4 18.8 15.3 82 1.8 N 7 11 4 6 1017.2 1016.3 0.0
28/11:53am 18.4 18.9 15.6 84 1.7 NNE 7 13 4 7 1017.3 1016.5 0.0

Other formats

Comma delimited format used in spreadsheet applications
http://www.bom.gov.au/fwo/IDQ60801/IDQ60801.94342.axf

JavaScript Object Notation format (JSON) in row-major order
http://www.bom.gov.au/fwo/IDQ60801/IDQ60801.94342.json

Data quality

Most of these data are generated automatically and are frequently updated. Quality checks on data are not normally performed. It is possible for incorrect values to appear. Refer to information at About Latest Weather Observations and please check the disclaimer before using these data.